createdAt,value
2019-06-27T00:00:51.074Z,13.03
2019-06-27T00:15:51.039Z,12.95
2019-06-27T00:30:51.085Z,11.90
2019-06-27T00:45:51.076Z,12.23
2019-06-27T01:00:50.990Z,11.22
2019-06-27T01:15:51.409Z,12.20
2019-06-27T01:30:51.406Z,13.13
2019-06-27T01:45:56.229Z,12.93
2019-06-27T02:00:51.499Z,12.28
2019-06-27T02:15:50.902Z,11.80
2019-06-27T02:30:50.840Z,10.68
2019-06-27T02:45:56.832Z,11.50
2019-06-27T03:00:50.782Z,10.78
2019-06-27T03:15:52.130Z,12.00
2019-06-27T03:30:51.259Z,11.03
2019-06-27T03:45:51.177Z,13.90
2019-06-27T04:00:51.230Z,13.45
2019-06-27T04:15:50.570Z,12.85
2019-06-27T04:30:50.629Z,14.25
2019-06-27T04:45:55.473Z,14.10
2019-06-27T05:00:50.562Z,13.83
2019-06-27T05:15:53.948Z,15.03
2019-06-27T05:30:53.817Z,14.67
2019-06-27T05:45:50.823Z,12.80
2019-06-27T06:00:53.943Z,12.70
2019-06-27T06:15:53.368Z,13.97
2019-06-27T06:45:52.317Z,12.63
2019-06-27T07:01:00.968Z,12.50
2019-06-27T07:15:50.661Z,11.23
2019-06-27T07:30:50.620Z,11.10
2019-06-27T07:45:53.540Z,11.03
2019-06-27T08:00:50.693Z,11.47
2019-06-27T08:15:51.021Z,10.43
2019-06-27T08:30:50.939Z,10.10
2019-06-27T08:45:51.012Z,10.17
2019-06-27T09:00:50.947Z,9.83
2019-06-27T09:15:51.318Z,7.67
2019-06-27T09:30:50.855Z,7.77
2019-06-27T09:45:51.450Z,7.87
2019-06-27T10:00:51.393Z,7.90
2019-06-27T10:15:50.719Z,9.20
2019-06-27T10:30:50.678Z,8.67
2019-06-27T10:45:51.773Z,8.53
2019-06-27T11:00:53.715Z,8.10
2019-06-27T11:15:57.145Z,8.20
2019-06-27T11:30:54.545Z,8.53
2019-06-27T11:45:51.131Z,7.17
2019-06-27T12:00:51.214Z,6.97
2019-06-27T12:15:51.711Z,8.10
2019-06-27T12:30:53.951Z,9.60
2019-06-27T12:45:49.608Z,9.53
2019-06-27T13:00:50.597Z,9.10
2019-06-27T13:15:57.155Z,9.13
2019-06-27T13:30:55.127Z,8.20
2019-06-27T13:45:51.120Z,8.90
2019-06-27T14:00:51.096Z,8.53
2019-06-27T14:15:51.292Z,8.53
2019-06-27T14:30:53.786Z,8.70
2019-06-27T14:45:51.305Z,8.40
2019-06-27T15:00:51.340Z,9.00
2019-06-27T15:15:50.703Z,9.00
2019-06-27T15:30:50.735Z,9.20
2019-06-27T15:45:50.677Z,9.00
2019-06-27T16:00:50.722Z,10.20
2019-06-27T16:15:51.213Z,10.10
2019-06-27T16:30:51.064Z,11.13
2019-06-27T16:45:51.114Z,10.10
2019-06-27T17:00:51.043Z,11.17
2019-06-27T17:15:50.433Z,10.63
2019-06-27T17:30:50.707Z,12.47
2019-06-27T17:45:50.674Z,30.07
2019-06-27T18:00:51.999Z,21.40
2019-06-27T18:15:51.064Z,17.47
2019-06-27T18:30:54.579Z,13.30
2019-06-27T18:45:50.886Z,12.90
2019-06-27T19:00:50.731Z,14.67
2019-06-27T19:16:00.254Z,13.57
2019-06-27T19:30:51.315Z,13.97
2019-06-27T19:45:54.381Z,14.53
2019-06-27T20:15:50.159Z,15.30
2019-06-27T20:30:54.767Z,15.43
2019-06-27T20:45:59.556Z,15.10
2019-06-27T21:00:57.783Z,15.43
2019-06-27T21:15:55.066Z,14.78
2019-06-27T22:30:56.656Z,16.12
